sensor_id;sensor_type;location;lat;lon;timestamp;pressure;altitude;pressure_sealevel;temperature;humidity
78064;BME280;67429;51.596;-3.264;2023-04-21T00:00:51;99661.32;;;5.62;54.70
78064;BME280;67429;51.596;-3.264;2023-04-21T00:03:15;99670.33;;;5.11;55.26
78064;BME280;67429;51.596;-3.264;2023-04-21T00:05:41;99665.90;;;4.33;55.78
78064;BME280;67429;51.596;-3.264;2023-04-21T00:08:07;99659.57;;;4.43;56.39
78064;BME280;67429;51.596;-3.264;2023-04-21T00:10:32;99657.49;;;4.45;57.27
78064;BME280;67429;51.596;-3.264;2023-04-21T00:12:57;99654.98;;;4.69;55.97
78064;BME280;67429;51.596;-3.264;2023-04-21T00:15:23;99647.85;;;4.62;56.69
78064;BME280;67429;51.596;-3.264;2023-04-21T00:17:49;99631.03;;;4.82;56.22
78064;BME280;67429;51.596;-3.264;2023-04-21T00:20:14;99633.67;;;4.25;56.56
78064;BME280;67429;51.596;-3.264;2023-04-21T00:22:40;99623.74;;;4.15;57.12
78064;BME280;67429;51.596;-3.264;2023-04-21T00:25:07;99618.37;;;4.14;56.74
78064;BME280;67429;51.596;-3.264;2023-04-21T00:27:32;99608.61;;;4.86;55.06
78064;BME280;67429;51.596;-3.264;2023-04-21T00:29:57;99606.51;;;3.76;57.48
78064;BME280;67429;51.596;-3.264;2023-04-21T00:32:23;99606.03;;;3.29;60.10
78064;BME280;67429;51.596;-3.264;2023-04-21T00:34:48;99605.19;;;3.39;58.11
78064;BME280;67429;51.596;-3.264;2023-04-21T00:37:13;99597.35;;;4.34;56.51
78064;BME280;67429;51.596;-3.264;2023-04-21T00:39:39;99598.38;;;3.71;58.01
78064;BME280;67429;51.596;-3.264;2023-04-21T00:42:05;99600.85;;;3.74;58.42
78064;BME280;67429;51.596;-3.264;2023-04-21T00:44:32;99595.56;;;3.17;59.76
78064;BME280;67429;51.596;-3.264;2023-04-21T00:46:56;99589.29;;;3.76;57.62
78064;BME280;67429;51.596;-3.264;2023-04-21T00:49:23;99589.44;;;4.08;55.80
78064;BME280;67429;51.596;-3.264;2023-04-21T00:51:49;99583.47;;;4.09;55.71
78064;BME280;67429;51.596;-3.264;2023-04-21T00:54:13;99585.90;;;3.65;56.57
78064;BME280;67429;51.596;-3.264;2023-04-21T00:56:39;99581.56;;;3.27;57.82
78064;BME280;67429;51.596;-3.264;2023-04-21T00:59:05;99578.77;;;3.97;54.74
78064;BME280;67429;51.596;-3.264;2023-04-21T01:01:31;99573.06;;;4.58;53.75
78064;BME280;67429;51.596;-3.264;2023-04-21T01:03:57;99569.80;;;4.17;53.80
78064;BME280;67429;51.596;-3.264;2023-04-21T01:06:21;99568.22;;;4.12;53.50
78064;BME280;67429;51.596;-3.264;2023-04-21T01:08:53;99564.87;;;4.52;52.48
78064;BME280;67429;51.596;-3.264;2023-04-21T01:11:13;99567.28;;;3.36;54.64
78064;BME280;67429;51.596;-3.264;2023-04-21T01:13:39;99562.95;;;3.74;54.69
78064;BME280;67429;51.596;-3.264;2023-04-21T01:16:15;99563.29;;;3.57;54.66
78064;BME280;67429;51.596;-3.264;2023-04-21T01:18:29;99569.30;;;4.17;54.01
78064;BME280;67429;51.596;-3.264;2023-04-21T01:20:55;99565.13;;;3.87;54.42
78064;BME280;67429;51.596;-3.264;2023-04-21T01:23:21;99559.90;;;4.60;53.03
78064;BME280;67429;51.596;-3.264;2023-04-21T01:25:46;99563.83;;;3.70;54.77
78064;BME280;67429;51.596;-3.264;2023-04-21T01:28:11;99558.82;;;3.47;55.59
78064;BME280;67429;51.596;-3.264;2023-04-21T01:30:39;99560.74;;;3.80;55.74
78064;BME280;67429;51.596;-3.264;2023-04-21T01:33:05;99561.12;;;3.77;55.89
78064;BME280;67429;51.596;-3.264;2023-04-21T01:35:29;99555.70;;;3.97;56.17
78064;BME280;67429;51.596;-3.264;2023-04-21T01:37:54;99554.21;;;3.38;57.71
78064;BME280;67429;51.596;-3.264;2023-04-21T01:40:21;99554.36;;;4.05;57.16
78064;BME280;67429;51.596;-3.264;2023-04-21T01:42:46;99557.65;;;3.52;57.44
78064;BME280;67429;51.596;-3.264;2023-04-21T01:45:13;99554.86;;;3.82;57.74
78064;BME280;67429;51.596;-3.264;2023-04-21T01:47:37;99553.48;;;3.61;57.84
78064;BME280;67429;51.596;-3.264;2023-04-21T01:50:02;99551.79;;;4.24;56.90
78064;BME280;67429;51.596;-3.264;2023-04-21T01:52:27;99551.43;;;3.07;60.04
78064;BME280;67429;51.596;-3.264;2023-04-21T01:54:53;99551.80;;;3.45;60.11
78064;BME280;67429;51.596;-3.264;2023-04-21T01:57:18;99555.42;;;3.17;59.92
78064;BME280;67429;51.596;-3.264;2023-04-21T01:59:45;99550.54;;;2.78;60.84
78064;BME280;67429;51.596;-3.264;2023-04-21T02:02:11;99549.44;;;2.79;62.41
78064;BME280;67429;51.596;-3.264;2023-04-21T02:04:36;99556.13;;;2.74;60.75
78064;BME280;67429;51.596;-3.264;2023-04-21T02:07:02;99552.20;;;3.18;60.32
78064;BME280;67429;51.596;-3.264;2023-04-21T02:09:28;99547.52;;;3.12;61.05
78064;BME280;67429;51.596;-3.264;2023-04-21T02:11:54;99547.11;;;2.85;61.75
78064;BME280;67429;51.596;-3.264;2023-04-21T02:14:18;99542.94;;;2.44;63.29
78064;BME280;67429;51.596;-3.264;2023-04-21T02:16:45;99546.16;;;2.17;63.93
78064;BME280;67429;51.596;-3.264;2023-04-21T02:19:11;99543.84;;;2.45;62.97
78064;BME280;67429;51.596;-3.264;2023-04-21T02:21:35;99543.01;;;3.50;60.75
78064;BME280;67429;51.596;-3.264;2023-04-21T02:24:03;99538.15;;;2.94;62.18
78064;BME280;67429;51.596;-3.264;2023-04-21T02:26:27;99535.05;;;2.43;62.85
78064;BME280;67429;51.596;-3.264;2023-04-21T02:28:52;99535.45;;;2.49;62.59
78064;BME280;67429;51.596;-3.264;2023-04-21T02:31:17;99530.47;;;2.87;61.70
78064;BME280;67429;51.596;-3.264;2023-04-21T02:33:43;99531.08;;;2.58;62.75
78064;BME280;67429;51.596;-3.264;2023-04-21T02:36:09;99528.97;;;2.39;63.50
78064;BME280;67429;51.596;-3.264;2023-04-21T02:38:34;99531.87;;;2.72;61.87
78064;BME280;67429;51.596;-3.264;2023-04-21T02:40:59;99531.10;;;2.84;61.76
78064;BME280;67429;51.596;-3.264;2023-04-21T02:43:27;99532.81;;;2.75;62.84
78064;BME280;67429;51.596;-3.264;2023-04-21T02:45:51;99527.57;;;2.20;62.85
78064;BME280;67429;51.596;-3.264;2023-04-21T02:48:16;99524.06;;;2.61;62.60
78064;BME280;67429;51.596;-3.264;2023-04-21T02:50:42;99514.27;;;2.65;63.49
78064;BME280;67429;51.596;-3.264;2023-04-21T02:53:07;99521.85;;;2.83;63.05
78064;BME280;67429;51.596;-3.264;2023-04-21T02:55:35;99512.87;;;2.85;61.98
78064;BME280;67429;51.596;-3.264;2023-04-21T02:57:59;99511.74;;;2.07;64.64
78064;BME280;67429;51.596;-3.264;2023-04-21T03:00:23;99514.03;;;2.41;63.59
78064;BME280;67429;51.596;-3.264;2023-04-21T03:02:49;99516.25;;;2.92;61.32
78064;BME280;67429;51.596;-3.264;2023-04-21T03:05:14;99516.45;;;2.98;61.62
78064;BME280;67429;51.596;-3.264;2023-04-21T03:07:41;99515.13;;;3.51;58.90
78064;BME280;67429;51.596;-3.264;2023-04-21T03:10:06;99514.11;;;3.40;59.93
78064;BME280;67429;51.596;-3.264;2023-04-21T03:12:31;99510.34;;;2.53;61.72
78064;BME280;67429;51.596;-3.264;2023-04-21T03:14:56;99502.52;;;2.24;63.06
78064;BME280;67429;51.596;-3.264;2023-04-21T03:17:23;99497.11;;;2.18;63.03
78064;BME280;67429;51.596;-3.264;2023-04-21T03:19:47;99494.41;;;2.44;63.35
78064;BME280;67429;51.596;-3.264;2023-04-21T03:22:12;99495.44;;;2.31;65.10
78064;BME280;67429;51.596;-3.264;2023-04-21T03:24:38;99494.73;;;2.41;63.84
78064;BME280;67429;51.596;-3.264;2023-04-21T03:27:05;99492.22;;;2.42;63.54
78064;BME280;67429;51.596;-3.264;2023-04-21T03:29:29;99491.13;;;2.19;63.62
78064;BME280;67429;51.596;-3.264;2023-04-21T03:31:54;99489.54;;;3.12;62.42
78064;BME280;67429;51.596;-3.264;2023-04-21T03:34:22;99476.05;;;3.63;59.05
78064;BME280;67429;51.596;-3.264;2023-04-21T03:36:47;99485.97;;;2.23;62.00
78064;BME280;67429;51.596;-3.264;2023-04-21T03:39:11;99476.14;;;2.71;63.39
78064;BME280;67429;51.596;-3.264;2023-04-21T03:41:36;99470.13;;;1.63;66.82
78064;BME280;67429;51.596;-3.264;2023-04-21T03:44:02;99467.92;;;2.37;66.16
78064;BME280;67429;51.596;-3.264;2023-04-21T03:46:27;99463.91;;;1.84;66.49
78064;BME280;67429;51.596;-3.264;2023-04-21T03:48:52;99457.88;;;2.01;66.39
78064;BME280;67429;51.596;-3.264;2023-04-21T03:51:19;99455.82;;;3.20;62.99
78064;BME280;67429;51.596;-3.264;2023-04-21T03:53:44;99454.99;;;2.86;63.44
78064;BME280;67429;51.596;-3.264;2023-04-21T03:56:09;99451.91;;;2.97;63.36
78064;BME280;67429;51.596;-3.264;2023-04-21T03:58:35;99457.79;;;3.06;63.77
78064;BME280;67429;51.596;-3.264;2023-04-21T04:01:00;99455.35;;;2.24;66.04
78064;BME280;67429;51.596;-3.264;2023-04-21T04:03:26;99452.94;;;2.92;63.52
78064;BME280;67429;51.596;-3.264;2023-04-21T04:05:53;99451.67;;;3.32;62.43
78064;BME280;67429;51.596;-3.264;2023-04-21T04:08:16;99446.57;;;3.12;61.92
78064;BME280;67429;51.596;-3.264;2023-04-21T04:10:42;99445.96;;;3.22;62.42
78064;BME280;67429;51.596;-3.264;2023-04-21T04:13:07;99444.28;;;2.84;62.31
78064;BME280;67429;51.596;-3.264;2023-04-21T04:15:34;99440.74;;;3.67;60.10
78064;BME280;67429;51.596;-3.264;2023-04-21T04:17:58;99431.49;;;3.79;59.71
78064;BME280;67429;51.596;-3.264;2023-04-21T04:20:26;99431.07;;;4.37;57.85
78064;BME280;67429;51.596;-3.264;2023-04-21T04:22:50;99429.88;;;3.73;58.44
78064;BME280;67429;51.596;-3.264;2023-04-21T04:25:16;99431.61;;;4.66;56.56
78064;BME280;67429;51.596;-3.264;2023-04-21T04:27:40;99425.32;;;4.81;55.48
78064;BME280;67429;51.596;-3.264;2023-04-21T04:30:06;99424.41;;;3.74;58.67
78064;BME280;67429;51.596;-3.264;2023-04-21T04:32:31;99416.12;;;3.35;59.79
78064;BME280;67429;51.596;-3.264;2023-04-21T04:34:57;99415.60;;;2.73;62.87
78064;BME280;67429;51.596;-3.264;2023-04-21T04:37:23;99413.26;;;2.57;63.14
78064;BME280;67429;51.596;-3.264;2023-04-21T04:39:52;99419.77;;;2.53;63.56
78064;BME280;67429;51.596;-3.264;2023-04-21T04:42:15;99414.85;;;2.54;63.43
78064;BME280;67429;51.596;-3.264;2023-04-21T04:44:39;99408.18;;;3.07;62.79
78064;BME280;67429;51.596;-3.264;2023-04-21T04:47:05;99414.22;;;2.53;63.35
78064;BME280;67429;51.596;-3.264;2023-04-21T04:49:31;99409.15;;;2.55;64.25
78064;BME280;67429;51.596;-3.264;2023-04-21T04:51:56;99410.84;;;2.44;64.03
78064;BME280;67429;51.596;-3.264;2023-04-21T04:54:21;99414.33;;;2.56;63.45
78064;BME280;67429;51.596;-3.264;2023-04-21T04:56:46;99411.38;;;2.36;63.74
78064;BME280;67429;51.596;-3.264;2023-04-21T04:59:12;99411.09;;;2.55;64.74
78064;BME280;67429;51.596;-3.264;2023-04-21T05:01:37;99403.24;;;2.24;65.68
78064;BME280;67429;51.596;-3.264;2023-04-21T05:04:03;99395.39;;;2.84;64.13
78064;BME280;67429;51.596;-3.264;2023-04-21T05:06:29;99404.35;;;2.83;60.65
78064;BME280;67429;51.596;-3.264;2023-04-21T05:08:54;99400.62;;;2.67;62.57
78064;BME280;67429;51.596;-3.264;2023-04-21T05:11:20;99400.80;;;2.24;64.57
78064;BME280;67429;51.596;-3.264;2023-04-21T05:13:45;99410.43;;;2.35;63.86
78064;BME280;67429;51.596;-3.264;2023-04-21T05:16:12;99415.26;;;2.15;64.24
78064;BME280;67429;51.596;-3.264;2023-04-21T05:18:36;99402.64;;;3.03;62.67
78064;BME280;67429;51.596;-3.264;2023-04-21T05:21:02;99399.74;;;2.70;63.04
78064;BME280;67429;51.596;-3.264;2023-04-21T05:23:27;99398.68;;;2.46;63.67
78064;BME280;67429;51.596;-3.264;2023-04-21T05:25:52;99392.19;;;2.97;61.34
78064;BME280;67429;51.596;-3.264;2023-04-21T05:28:19;99390.36;;;3.51;60.83
78064;BME280;67429;51.596;-3.264;2023-04-21T05:30:44;99388.94;;;3.01;62.19
78064;BME280;67429;51.596;-3.264;2023-04-21T05:33:09;99399.53;;;2.66;63.48
78064;BME280;67429;51.596;-3.264;2023-04-21T05:35:34;99401.87;;;2.42;65.53
78064;BME280;67429;51.596;-3.264;2023-04-21T05:37:59;99393.19;;;2.91;64.26
78064;BME280;67429;51.596;-3.264;2023-04-21T05:40:25;99381.53;;;3.40;62.87
78064;BME280;67429;51.596;-3.264;2023-04-21T05:42:50;99384.92;;;3.50;61.13
78064;BME280;67429;51.596;-3.264;2023-04-21T05:45:15;99383.31;;;3.20;62.73
78064;BME280;67429;51.596;-3.264;2023-04-21T05:47:41;99388.56;;;3.05;64.54
78064;BME280;67429;51.596;-3.264;2023-04-21T05:50:07;99393.56;;;2.28;66.54
78064;BME280;67429;51.596;-3.264;2023-04-21T05:52:32;99392.54;;;1.92;66.08
78064;BME280;67429;51.596;-3.264;2023-04-21T05:54:58;99384.96;;;2.10;67.32
78064;BME280;67429;51.596;-3.264;2023-04-21T05:57:22;99385.09;;;2.50;66.53
78064;BME280;67429;51.596;-3.264;2023-04-21T05:59:48;99389.46;;;1.86;67.51
78064;BME280;67429;51.596;-3.264;2023-04-21T06:02:14;99387.63;;;2.45;65.87
78064;BME280;67429;51.596;-3.264;2023-04-21T06:04:39;99379.71;;;2.88;64.51
78064;BME280;67429;51.596;-3.264;2023-04-21T06:07:05;99380.84;;;2.45;64.92
78064;BME280;67429;51.596;-3.264;2023-04-21T06:09:31;99383.78;;;3.00;63.97
78064;BME280;67429;51.596;-3.264;2023-04-21T06:11:55;99381.29;;;3.01;63.99
78064;BME280;67429;51.596;-3.264;2023-04-21T06:14:20;99379.37;;;3.61;63.73
78064;BME280;67429;51.596;-3.264;2023-04-21T06:16:47;99367.42;;;3.49;61.28
78064;BME280;67429;51.596;-3.264;2023-04-21T06:19:11;99363.06;;;3.25;62.62
78064;BME280;67429;51.596;-3.264;2023-04-21T06:21:37;99365.64;;;3.11;63.00
78064;BME280;67429;51.596;-3.264;2023-04-21T06:24:03;99367.94;;;2.88;63.22
78064;BME280;67429;51.596;-3.264;2023-04-21T06:26:29;99363.98;;;3.38;62.26
78064;BME280;67429;51.596;-3.264;2023-04-21T06:28:53;99350.45;;;3.66;62.18
78064;BME280;67429;51.596;-3.264;2023-04-21T06:31:20;99347.88;;;3.99;60.83
78064;BME280;67429;51.596;-3.264;2023-04-21T06:33:44;99348.49;;;4.04;61.14
78064;BME280;67429;51.596;-3.264;2023-04-21T06:36:11;99344.46;;;3.59;62.26
78064;BME280;67429;51.596;-3.264;2023-04-21T06:38:35;99341.39;;;3.81;62.16
78064;BME280;67429;51.596;-3.264;2023-04-21T06:41:00;99335.42;;;3.81;61.14
78064;BME280;67429;51.596;-3.264;2023-04-21T06:43:26;99333.88;;;4.03;60.59
78064;BME280;67429;51.596;-3.264;2023-04-21T06:45:51;99330.16;;;4.51;59.02
78064;BME280;67429;51.596;-3.264;2023-04-21T06:48:16;99325.97;;;5.11;57.82
78064;BME280;67429;51.596;-3.264;2023-04-21T06:50:42;99322.43;;;4.82;57.36
78064;BME280;67429;51.596;-3.264;2023-04-21T06:53:09;99321.61;;;5.14;56.49
78064;BME280;67429;51.596;-3.264;2023-04-21T06:55:34;99317.30;;;5.15;56.26
78064;BME280;67429;51.596;-3.264;2023-04-21T06:57:59;99314.49;;;5.41;56.13
78064;BME280;67429;51.596;-3.264;2023-04-21T07:00:24;99314.02;;;6.05;55.38
78064;BME280;67429;51.596;-3.264;2023-04-21T07:05:16;99298.51;;;4.23;60.57
78064;BME280;67429;51.596;-3.264;2023-04-21T07:07:41;99290.09;;;4.80;58.56
78064;BME280;67429;51.596;-3.264;2023-04-21T07:10:07;99285.38;;;5.12;56.29
78064;BME280;67429;51.596;-3.264;2023-04-21T07:12:31;99291.22;;;5.47;56.23
78064;BME280;67429;51.596;-3.264;2023-04-21T07:14:56;99281.84;;;5.30;56.42
78064;BME280;67429;51.596;-3.264;2023-04-21T07:17:21;99274.22;;;6.22;55.02
78064;BME280;67429;51.596;-3.264;2023-04-21T07:19:47;99264.75;;;6.58;53.06
78064;BME280;67429;51.596;-3.264;2023-04-21T07:22:12;99268.24;;;7.26;51.11
78064;BME280;67429;51.596;-3.264;2023-04-21T07:24:38;99270.67;;;6.48;52.93
78064;BME280;67429;51.596;-3.264;2023-04-21T07:27:03;99266.88;;;7.23;51.10
78064;BME280;67429;51.596;-3.264;2023-04-21T07:29:29;99260.53;;;7.14;50.92
78064;BME280;67429;51.596;-3.264;2023-04-21T07:31:55;99260.44;;;7.64;49.89
78064;BME280;67429;51.596;-3.264;2023-04-21T07:34:20;99257.00;;;8.31;48.13
78064;BME280;67429;51.596;-3.264;2023-04-21T07:36:46;99258.47;;;7.81;48.56
78064;BME280;67429;51.596;-3.264;2023-04-21T07:39:12;99256.56;;;6.90;50.42
78064;BME280;67429;51.596;-3.264;2023-04-21T07:41:37;99249.50;;;6.99;52.41
78064;BME280;67429;51.596;-3.264;2023-04-21T07:44:04;99246.75;;;6.53;53.78
78064;BME280;67429;51.596;-3.264;2023-04-21T07:46:29;99251.61;;;6.60;52.57
78064;BME280;67429;51.596;-3.264;2023-04-21T07:48:54;99242.65;;;6.49;53.38
78064;BME280;67429;51.596;-3.264;2023-04-21T07:51:19;99240.56;;;7.46;50.74
78064;BME280;67429;51.596;-3.264;2023-04-21T07:53:45;99240.70;;;7.72;49.43
78064;BME280;67429;51.596;-3.264;2023-04-21T07:56:10;99241.03;;;8.60;47.40
78064;BME280;67429;51.596;-3.264;2023-04-21T07:58:36;99238.08;;;8.61;47.60
78064;BME280;67429;51.596;-3.264;2023-04-21T08:01:01;99231.14;;;9.04;47.07
78064;BME280;67429;51.596;-3.264;2023-04-21T08:03:26;99234.83;;;9.43;45.41
78064;BME280;67429;51.596;-3.264;2023-04-21T08:05:51;99225.51;;;9.84;44.82
78064;BME280;67429;51.596;-3.264;2023-04-21T08:08:17;99217.09;;;7.94;48.58
78064;BME280;67429;51.596;-3.264;2023-04-21T08:10:43;99220.80;;;6.46;51.22
78064;BME280;67429;51.596;-3.264;2023-04-21T08:13:07;99213.43;;;6.59;52.21
78064;BME280;67429;51.596;-3.264;2023-04-21T08:15:33;99205.95;;;7.94;49.33
78064;BME280;67429;51.596;-3.264;2023-04-21T08:17:58;99208.08;;;8.38;48.49
78064;BME280;67429;51.596;-3.264;2023-04-21T08:20:24;99213.79;;;6.25;51.52
78064;BME280;67429;51.596;-3.264;2023-04-21T08:22:49;99216.29;;;5.75;54.35
78064;BME280;67429;51.596;-3.264;2023-04-21T08:25:15;99210.83;;;5.85;54.41
78064;BME280;67429;51.596;-3.264;2023-04-21T08:27:41;99204.48;;;7.15;51.89
78064;BME280;67429;51.596;-3.264;2023-04-21T08:30:07;99199.61;;;8.06;48.65
78064;BME280;67429;51.596;-3.264;2023-04-21T08:32:32;99193.07;;;8.42;46.90
78064;BME280;67429;51.596;-3.264;2023-04-21T08:34:57;99189.38;;;8.15;47.81
78064;BME280;67429;51.596;-3.264;2023-04-21T08:37:23;99188.55;;;7.87;48.55
78064;BME280;67429;51.596;-3.264;2023-04-21T08:39:49;99185.09;;;8.72;46.71
78064;BME280;67429;51.596;-3.264;2023-04-21T08:42:15;99180.86;;;8.76;46.38
78064;BME280;67429;51.596;-3.264;2023-04-21T08:44:40;99179.36;;;9.33;44.57
78064;BME280;67429;51.596;-3.264;2023-04-21T08:47:05;99176.54;;;9.57;43.42
78064;BME280;67429;51.596;-3.264;2023-04-21T08:49:31;99178.90;;;9.40;44.05
78064;BME280;67429;51.596;-3.264;2023-04-21T08:51:55;99175.42;;;8.52;44.62
78064;BME280;67429;51.596;-3.264;2023-04-21T08:54:21;99176.04;;;7.99;45.96
78064;BME280;67429;51.596;-3.264;2023-04-21T08:56:47;99174.27;;;8.14;45.60
78064;BME280;67429;51.596;-3.264;2023-04-21T08:59:12;99174.63;;;7.10;47.21
78064;BME280;67429;51.596;-3.264;2023-04-21T09:04:16;99171.25;;;7.34;46.78
78064;BME280;67429;51.596;-3.264;2023-04-21T09:08:54;99173.57;;;7.97;45.64
78064;BME280;67429;51.596;-3.264;2023-04-21T09:11:19;99171.67;;;8.30;46.26
78064;BME280;67429;51.596;-3.264;2023-04-21T09:13:45;99175.13;;;8.93;44.68
78064;BME280;67429;51.596;-3.264;2023-04-21T09:16:16;99170.80;;;8.99;45.52
78064;BME280;67429;51.596;-3.264;2023-04-21T09:18:36;99173.66;;;6.48;50.00
78064;BME280;67429;51.596;-3.264;2023-04-21T09:21:07;99171.68;;;6.56;50.00
78064;BME280;67429;51.596;-3.264;2023-04-21T09:23:26;99168.61;;;7.10;50.73
78064;BME280;67429;51.596;-3.264;2023-04-21T09:25:53;99170.50;;;6.42;51.40
78064;BME280;67429;51.596;-3.264;2023-04-21T09:28:16;99167.60;;;7.22;50.71
78064;BME280;67429;51.596;-3.264;2023-04-21T09:30:42;99167.84;;;7.47;50.94
78064;BME280;67429;51.596;-3.264;2023-04-21T09:33:14;99169.53;;;7.39;50.27
78064;BME280;67429;51.596;-3.264;2023-04-21T09:35:34;99170.58;;;7.18;51.63
78064;BME280;67429;51.596;-3.264;2023-04-21T09:38:00;99169.77;;;7.35;49.77
78064;BME280;67429;51.596;-3.264;2023-04-21T09:40:24;99166.62;;;6.85;50.99
78064;BME280;67429;51.596;-3.264;2023-04-21T09:42:49;99165.13;;;6.06;51.94
78064;BME280;67429;51.596;-3.264;2023-04-21T09:45:14;99155.31;;;6.74;51.86
78064;BME280;67429;51.596;-3.264;2023-04-21T09:47:41;99153.46;;;6.35;52.36
78064;BME280;67429;51.596;-3.264;2023-04-21T09:50:06;99156.63;;;6.33;54.01
78064;BME280;67429;51.596;-3.264;2023-04-21T09:52:32;99152.34;;;6.68;52.91
78064;BME280;67429;51.596;-3.264;2023-04-21T09:55:00;99151.50;;;7.38;51.78
78064;BME280;67429;51.596;-3.264;2023-04-21T09:57:24;99152.76;;;8.01;50.22
78064;BME280;67429;51.596;-3.264;2023-04-21T09:59:48;99149.17;;;7.68;48.77
78064;BME280;67429;51.596;-3.264;2023-04-21T10:02:12;99142.39;;;7.33;50.30
78064;BME280;67429;51.596;-3.264;2023-04-21T10:04:39;99144.84;;;8.02;51.60
78064;BME280;67429;51.596;-3.264;2023-04-21T10:07:02;99142.27;;;8.04;49.98
78064;BME280;67429;51.596;-3.264;2023-04-21T10:09:35;99138.33;;;7.50;51.07
78064;BME280;67429;51.596;-3.264;2023-04-21T10:11:54;99134.54;;;7.83;52.22
78064;BME280;67429;51.596;-3.264;2023-04-21T10:14:19;99138.56;;;6.98;52.65
78064;BME280;67429;51.596;-3.264;2023-04-21T10:16:56;99134.11;;;6.56;54.23
78064;BME280;67429;51.596;-3.264;2023-04-21T10:19:22;99124.72;;;7.08;53.30
78064;BME280;67429;51.596;-3.264;2023-04-21T10:21:36;99128.04;;;7.47;52.94
78064;BME280;67429;51.596;-3.264;2023-04-21T10:24:06;99125.49;;;7.70;52.53
78064;BME280;67429;51.596;-3.264;2023-04-21T10:26:33;99129.22;;;7.05;53.55
78064;BME280;67429;51.596;-3.264;2023-04-21T10:28:53;99121.40;;;6.39;55.63
78064;BME280;67429;51.596;-3.264;2023-04-21T10:31:20;99120.21;;;6.80;52.43
78064;BME280;67429;51.596;-3.264;2023-04-21T10:36:11;99113.27;;;5.35;54.69
78064;BME280;67429;51.596;-3.264;2023-04-21T10:38:38;99110.37;;;6.48;53.92
78064;BME280;67429;51.596;-3.264;2023-04-21T10:43:42;99103.12;;;7.53;50.22
78064;BME280;67429;51.596;-3.264;2023-04-21T10:45:51;99099.89;;;7.48;49.86
78064;BME280;67429;51.596;-3.264;2023-04-21T10:48:21;99101.86;;;6.87;49.86
78064;BME280;67429;51.596;-3.264;2023-04-21T10:50:43;99098.89;;;7.89;49.25
78064;BME280;67429;51.596;-3.264;2023-04-21T10:53:09;99097.39;;;7.32;49.43
78064;BME280;67429;51.596;-3.264;2023-04-21T10:55:33;99093.54;;;7.15;50.81
78064;BME280;67429;51.596;-3.264;2023-04-21T10:58:02;99089.79;;;7.57;50.49
78064;BME280;67429;51.596;-3.264;2023-04-21T11:00:24;99088.65;;;7.04;50.60
78064;BME280;67429;51.596;-3.264;2023-04-21T11:02:54;99086.03;;;7.76;49.56
78064;BME280;67429;51.596;-3.264;2023-04-21T11:05:15;99080.96;;;7.71;49.22
78064;BME280;67429;51.596;-3.264;2023-04-21T11:07:41;99077.38;;;8.26;47.86
78064;BME280;67429;51.596;-3.264;2023-04-21T11:10:07;99074.23;;;8.01;48.18
78064;BME280;67429;51.596;-3.264;2023-04-21T11:12:35;99068.89;;;8.58;48.38
78064;BME280;67429;51.596;-3.264;2023-04-21T11:14:58;99066.31;;;8.15;48.43
78064;BME280;67429;51.596;-3.264;2023-04-21T11:17:23;99066.34;;;7.56;49.00
78064;BME280;67429;51.596;-3.264;2023-04-21T11:19:51;99067.39;;;7.69;48.85
78064;BME280;67429;51.596;-3.264;2023-04-21T11:22:15;99064.87;;;7.83;50.00
78064;BME280;67429;51.596;-3.264;2023-04-21T11:24:44;99065.52;;;7.37;50.71
78064;BME280;67429;51.596;-3.264;2023-04-21T11:27:07;99062.85;;;7.64;50.39
78064;BME280;67429;51.596;-3.264;2023-04-21T11:29:32;99062.51;;;7.90;49.84
78064;BME280;67429;51.596;-3.264;2023-04-21T11:31:57;99058.67;;;7.46;51.72
78064;BME280;67429;51.596;-3.264;2023-04-21T11:34:22;99054.54;;;7.49;51.29
78064;BME280;67429;51.596;-3.264;2023-04-21T11:36:48;99054.16;;;7.13;51.84
78064;BME280;67429;51.596;-3.264;2023-04-21T11:39:16;99053.30;;;7.03;54.61
78064;BME280;67429;51.596;-3.264;2023-04-21T11:41:40;99047.53;;;7.35;52.75
78064;BME280;67429;51.596;-3.264;2023-04-21T11:44:04;99045.63;;;7.25;52.49
78064;BME280;67429;51.596;-3.264;2023-04-21T11:46:30;99042.11;;;7.10;52.77
78064;BME280;67429;51.596;-3.264;2023-04-21T11:49:00;99034.05;;;7.36;54.58
78064;BME280;67429;51.596;-3.264;2023-04-21T11:51:21;99034.92;;;7.76;53.78
78064;BME280;67429;51.596;-3.264;2023-04-21T11:53:47;99031.52;;;7.13;54.51
78064;BME280;67429;51.596;-3.264;2023-04-21T11:56:16;99025.57;;;7.31;55.64
78064;BME280;67429;51.596;-3.264;2023-04-21T11:58:38;99022.70;;;7.41;56.68
78064;BME280;67429;51.596;-3.264;2023-04-21T12:01:06;99018.78;;;7.31;57.00
78064;BME280;67429;51.596;-3.264;2023-04-21T12:03:31;99027.21;;;7.29;55.48
78064;BME280;67429;51.596;-3.264;2023-04-21T12:05:55;99023.69;;;7.45;55.73
78064;BME280;67429;51.596;-3.264;2023-04-21T12:08:20;99023.46;;;7.27;55.67
78064;BME280;67429;51.596;-3.264;2023-04-21T12:10:46;99023.11;;;7.14;54.24
78064;BME280;67429;51.596;-3.264;2023-04-21T12:13:11;99024.42;;;6.86;55.08
78064;BME280;67429;51.596;-3.264;2023-04-21T12:15:36;99019.24;;;6.71;55.89
78064;BME280;67429;51.596;-3.264;2023-04-21T12:18:02;99017.06;;;6.61;56.20
78064;BME280;67429;51.596;-3.264;2023-04-21T12:20:28;99014.32;;;6.86;56.54
78064;BME280;67429;51.596;-3.264;2023-04-21T12:22:53;99018.15;;;6.69;57.00
78064;BME280;67429;51.596;-3.264;2023-04-21T12:25:19;99019.07;;;6.52;56.85
78064;BME280;67429;51.596;-3.264;2023-04-21T12:27:47;99022.36;;;6.83;56.75
78064;BME280;67429;51.596;-3.264;2023-04-21T12:30:11;99016.41;;;6.67;56.79
78064;BME280;67429;51.596;-3.264;2023-04-21T12:32:36;99015.71;;;6.50;56.56
78064;BME280;67429;51.596;-3.264;2023-04-21T12:35:02;99007.52;;;7.25;56.39
78064;BME280;67429;51.596;-3.264;2023-04-21T12:37:27;99013.25;;;6.86;56.55
78064;BME280;67429;51.596;-3.264;2023-04-21T12:39:53;99011.00;;;7.28;55.07
78064;BME280;67429;51.596;-3.264;2023-04-21T12:42:18;99012.98;;;8.38;53.88
78064;BME280;67429;51.596;-3.264;2023-04-21T12:44:44;99013.81;;;9.22;52.63
78064;BME280;67429;51.596;-3.264;2023-04-21T12:47:10;99008.90;;;8.54;52.57
78064;BME280;67429;51.596;-3.264;2023-04-21T12:49:36;99008.93;;;9.30;51.40
78064;BME280;67429;51.596;-3.264;2023-04-21T12:52:01;99001.34;;;8.07;52.54
78064;BME280;67429;51.596;-3.264;2023-04-21T12:54:27;98996.02;;;8.03;53.67
78064;BME280;67429;51.596;-3.264;2023-04-21T12:56:53;98990.17;;;7.68;55.89
78064;BME280;67429;51.596;-3.264;2023-04-21T12:59:18;98992.35;;;8.96;55.87
78064;BME280;67429;51.596;-3.264;2023-04-21T13:01:44;98992.77;;;8.95;54.32